CDT,Max TemperatureF,Mean TemperatureF,Min TemperatureF,Max Dew PointF,MeanDew PointF,Min DewpointF,Max Humidity, Mean Humidity, Min Humidity, Max Sea Level PressureIn, Mean Sea Level PressureIn, Min Sea Level PressureIn, Max VisibilityMiles, Mean VisibilityMiles, Min VisibilityMiles, Max Wind SpeedMPH, Mean Wind SpeedMPH, Max Gust SpeedMPH,PrecipitationIn, CloudCover, Events, WindDirDegrees
2013-6-1,75,68,61,66,60,55,96,81,52,29.82,29.73,29.69,10,10,10,18,11,24,0.02,6,,217
2013-6-2,61,56,52,57,51,46,94,77,62,30.05,29.96,29.82,10,10,10,16,10,21,0.00,8,,303
2013-6-3,68,57,46,50,47,42,99,67,44,30.14,30.07,30.02,10,10,1,9,2,,0.00,3,,128
2013-6-4,73,62,51,56,50,46,85,63,43,30.15,30.08,30.01,10,10,10,13,5,20,0.00,1,,114
2013-6-5,75,66,57,60,56,53,94,72,48,30.06,29.98,29.90,10,9,4,14,4,,0.05,4,Rain,91
2013-6-6,69,62,56,60,57,55,96,86,64,29.92,29.89,29.87,10,6,2,9,5,,0.10,5,Rain,354
2013-6-7,72,61,50,56,52,48,96,73,48,29.96,29.93,29.91,10,9,4,13,6,18,0.00,4,,4
2013-6-8,76,64,53,54,51,48,88,60,39,29.97,29.94,29.91,10,10,10,12,3,17,0.00,2,,141
2013-6-9,75,68,61,62,58,53,96,74,58,29.94,29.85,29.77,10,10,7,16,7,21,0.00,4,Rain-Thunderstorm,155
2013-6-10,77,67,57,61,59,56,98,77,50,29.90,29.83,29.75,10,9,1,13,4,17,0.00,5,,283
2013-6-11,87,71,56,69,63,56,98,73,52,29.94,29.88,29.81,10,10,4,14,3,21,0.00,1,Rain-Thunderstorm,173
2013-6-12,92,80,69,71,67,64,89,66,42,29.89,29.77,29.64,10,10,10,22,9,31,0.03,1,Rain,220
2013-6-13,82,73,64,64,56,50,92,60,33,30.02,29.93,29.72,10,10,7,21,12,25,0.03,3,Rain,347
2013-6-14,79,68,58,58,55,52,81,60,40,30.13,30.06,29.96,10,10,10,9,5,,0.00,0,,114
2013-6-15,79,72,65,70,64,57,93,81,67,30.05,29.98,29.89,10,10,2,31,5,39,0.92,4,Rain-Thunderstorm,184
2013-6-16,81,72,63,68,65,61,97,80,55,29.98,29.95,29.92,10,10,7,12,3,,0.00,3,,243
2013-6-17,85,72,60,67,61,54,98,67,34,29.97,29.94,29.90,10,8,0,9,3,,0.00,1,Fog,251
2013-6-18,81,71,61,62,58,54,94,63,42,30.05,29.97,29.89,10,10,10,13,6,18,0.00,1,,52
2013-6-19,83,68,55,61,53,49,82,57,33,30.12,30.07,30.04,10,10,10,10,4,,0.00,0,,76
2013-6-20,88,76,63,64,60,56,78,56,36,30.13,30.08,30.03,10,10,10,12,6,18,0.00,0,,137
2013-6-21,88,78,69,70,66,61,84,70,53,30.11,30.04,29.94,10,10,7,26,9,34,0.02,1,Rain-Thunderstorm,150
2013-6-22,91,81,72,72,69,62,83,71,49,30.06,30.00,29.95,10,10,10,16,9,24,0.00,1,Rain,170
2013-6-23,87,77,67,70,65,61,87,74,54,30.04,29.98,29.88,10,10,10,22,7,33,0.00,1,Rain-Thunderstorm,164
2013-6-24,85,76,67,70,65,62,93,81,58,30.13,29.99,29.89,10,10,7,30,7,43,0.15,3,Rain-Thunderstorm,118
2013-6-25,87,77,67,73,69,64,94,78,58,29.93,29.87,29.81,10,10,10,20,8,24,0.00,1,Rain-Thunderstorm,174
2013-6-26,85,75,65,74,70,64,96,82,63,29.86,29.77,29.74,10,9,1,21,6,30,0.54,3,Rain-Thunderstorm,194
2013-6-27,87,78,68,72,68,64,97,73,51,29.88,29.84,29.79,10,9,0,16,6,23,0.00,0,Fog,279
2013-6-28,83,74,65,64,59,53,88,62,35,29.83,29.76,29.69,10,10,10,24,9,33,0.00,2,,286
2013-6-29,72,66,62,64,62,59,94,83,71,29.81,29.72,29.67,10,10,7,16,10,33,0.16,6,Rain,341
2013-6-30,79,68,59,61,59,55,95,73,49,30.02,29.91,29.81,10,10,10,17,9,23,0.11,4,,5